sensor_id;sensor_type;location;lat;lon;timestamp;temperature;humidity
7700;DHT22;3892;47.794;19.126;2023-08-17T00:01:13;29.30;52.00
7700;DHT22;3892;47.794;19.126;2023-08-17T00:03:41;29.30;52.00
7700;DHT22;3892;47.794;19.126;2023-08-17T00:06:09;29.30;51.90
7700;DHT22;3892;47.794;19.126;2023-08-17T00:08:37;29.40;52.00
7700;DHT22;3892;47.794;19.126;2023-08-17T00:11:05;29.30;52.00
7700;DHT22;3892;47.794;19.126;2023-08-17T00:13:33;29.30;52.20
7700;DHT22;3892;47.794;19.126;2023-08-17T00:16:01;29.30;52.20
7700;DHT22;3892;47.794;19.126;2023-08-17T00:18:31;29.30;52.30
7700;DHT22;3892;47.794;19.126;2023-08-17T00:20:59;29.20;52.30
7700;DHT22;3892;47.794;19.126;2023-08-17T00:23:27;29.20;52.30
7700;DHT22;3892;47.794;19.126;2023-08-17T00:25:55;29.20;52.40
7700;DHT22;3892;47.794;19.126;2023-08-17T00:28:23;29.20;52.50
7700;DHT22;3892;47.794;19.126;2023-08-17T00:30:51;29.20;52.50
7700;DHT22;3892;47.794;19.126;2023-08-17T00:33:19;29.20;52.50
7700;DHT22;3892;47.794;19.126;2023-08-17T00:35:49;29.20;52.40
7700;DHT22;3892;47.794;19.126;2023-08-17T00:38:17;29.20;52.40
7700;DHT22;3892;47.794;19.126;2023-08-17T00:40:45;29.20;52.30
7700;DHT22;3892;47.794;19.126;2023-08-17T00:43:13;29.10;52.30
7700;DHT22;3892;47.794;19.126;2023-08-17T00:45:42;29.10;52.40
7700;DHT22;3892;47.794;19.126;2023-08-17T00:48:11;29.10;52.80
7700;DHT22;3892;47.794;19.126;2023-08-17T00:50:41;29.10;52.50
7700;DHT22;3892;47.794;19.126;2023-08-17T00:53:10;29.10;52.60
7700;DHT22;3892;47.794;19.126;2023-08-17T00:55:40;29.10;52.60
7700;DHT22;3892;47.794;19.126;2023-08-17T00:58:08;29.10;52.50
7700;DHT22;3892;47.794;19.126;2023-08-17T01:00:36;29.10;52.60
7700;DHT22;3892;47.794;19.126;2023-08-17T01:03:05;29.10;52.70
7700;DHT22;3892;47.794;19.126;2023-08-17T01:05:33;29.10;52.70
7700;DHT22;3892;47.794;19.126;2023-08-17T01:08:01;29.00;52.60
7700;DHT22;3892;47.794;19.126;2023-08-17T01:10:41;29.00;52.60
7700;DHT22;3892;47.794;19.126;2023-08-17T01:13:17;29.00;52.80
7700;DHT22;3892;47.794;19.126;2023-08-17T01:15:48;29.00;52.90
7700;DHT22;3892;47.794;19.126;2023-08-17T01:18:21;28.90;53.00
7700;DHT22;3892;47.794;19.126;2023-08-17T01:20:50;29.00;53.10
7700;DHT22;3892;47.794;19.126;2023-08-17T01:23:21;29.00;53.00
7700;DHT22;3892;47.794;19.126;2023-08-17T01:25:50;29.00;53.00
7700;DHT22;3892;47.794;19.126;2023-08-17T01:28:20;29.00;52.90
7700;DHT22;3892;47.794;19.126;2023-08-17T01:30:58;29.00;53.00
7700;DHT22;3892;47.794;19.126;2023-08-17T01:33:29;28.80;53.00
7700;DHT22;3892;47.794;19.126;2023-08-17T01:36:05;28.80;53.20
7700;DHT22;3892;47.794;19.126;2023-08-17T01:38:36;28.80;53.20
7700;DHT22;3892;47.794;19.126;2023-08-17T01:41:05;28.70;53.40
7700;DHT22;3892;47.794;19.126;2023-08-17T01:43:34;28.70;53.50
7700;DHT22;3892;47.794;19.126;2023-08-17T01:46:02;28.70;53.60
7700;DHT22;3892;47.794;19.126;2023-08-17T01:48:30;28.70;53.60
7700;DHT22;3892;47.794;19.126;2023-08-17T01:50:59;28.80;53.70
7700;DHT22;3892;47.794;19.126;2023-08-17T01:53:27;28.80;53.60
7700;DHT22;3892;47.794;19.126;2023-08-17T01:55:56;28.80;53.50
7700;DHT22;3892;47.794;19.126;2023-08-17T01:58:24;28.80;53.50
7700;DHT22;3892;47.794;19.126;2023-08-17T02:00:52;28.70;53.40
7700;DHT22;3892;47.794;19.126;2023-08-17T02:03:20;28.70;53.20
7700;DHT22;3892;47.794;19.126;2023-08-17T02:05:48;28.70;53.30
7700;DHT22;3892;47.794;19.126;2023-08-17T02:08:16;28.60;53.50
7700;DHT22;3892;47.794;19.126;2023-08-17T02:10:45;28.60;53.50
7700;DHT22;3892;47.794;19.126;2023-08-17T02:13:14;28.60;53.50
7700;DHT22;3892;47.794;19.126;2023-08-17T02:15:43;28.60;53.60
7700;DHT22;3892;47.794;19.126;2023-08-17T02:18:11;28.70;53.70
7700;DHT22;3892;47.794;19.126;2023-08-17T02:20:39;28.70;53.50
7700;DHT22;3892;47.794;19.126;2023-08-17T02:23:07;28.70;53.50
7700;DHT22;3892;47.794;19.126;2023-08-17T02:25:38;28.70;53.50
7700;DHT22;3892;47.794;19.126;2023-08-17T02:28:06;28.60;53.60
7700;DHT22;3892;47.794;19.126;2023-08-17T02:30:35;28.70;53.80
7700;DHT22;3892;47.794;19.126;2023-08-17T02:33:04;28.60;53.80
7700;DHT22;3892;47.794;19.126;2023-08-17T02:35:32;28.70;53.70
7700;DHT22;3892;47.794;19.126;2023-08-17T02:38:00;28.70;53.50
7700;DHT22;3892;47.794;19.126;2023-08-17T02:40:28;28.70;53.40
7700;DHT22;3892;47.794;19.126;2023-08-17T02:42:57;28.70;53.30
7700;DHT22;3892;47.794;19.126;2023-08-17T02:45:25;28.70;53.70
7700;DHT22;3892;47.794;19.126;2023-08-17T02:47:55;28.70;53.00
7700;DHT22;3892;47.794;19.126;2023-08-17T02:50:23;28.70;53.00
7700;DHT22;3892;47.794;19.126;2023-08-17T02:52:51;28.60;53.00
7700;DHT22;3892;47.794;19.126;2023-08-17T02:55:19;28.50;53.30
7700;DHT22;3892;47.794;19.126;2023-08-17T02:57:47;28.60;53.40
7700;DHT22;3892;47.794;19.126;2023-08-17T03:00:15;28.50;53.40
7700;DHT22;3892;47.794;19.126;2023-08-17T03:02:44;28.60;53.50
7700;DHT22;3892;47.794;19.126;2023-08-17T03:05:13;28.60;53.40
7700;DHT22;3892;47.794;19.126;2023-08-17T03:07:41;28.60;53.70
7700;DHT22;3892;47.794;19.126;2023-08-17T03:10:09;28.70;53.30
7700;DHT22;3892;47.794;19.126;2023-08-17T03:12:38;28.70;53.30
7700;DHT22;3892;47.794;19.126;2023-08-17T03:15:07;28.70;53.30
7700;DHT22;3892;47.794;19.126;2023-08-17T03:17:35;28.70;53.10
7700;DHT22;3892;47.794;19.126;2023-08-17T03:20:04;28.70;53.10
7700;DHT22;3892;47.794;19.126;2023-08-17T03:22:34;28.70;53.10
7700;DHT22;3892;47.794;19.126;2023-08-17T03:25:03;28.70;53.00
7700;DHT22;3892;47.794;19.126;2023-08-17T03:27:31;28.70;52.90
7700;DHT22;3892;47.794;19.126;2023-08-17T03:29:59;28.70;52.80
7700;DHT22;3892;47.794;19.126;2023-08-17T03:32:28;28.70;52.60
7700;DHT22;3892;47.794;19.126;2023-08-17T03:34:56;28.70;52.60
7700;DHT22;3892;47.794;19.126;2023-08-17T03:37:24;28.70;52.70
7700;DHT22;3892;47.794;19.126;2023-08-17T03:39:53;28.70;52.70
7700;DHT22;3892;47.794;19.126;2023-08-17T03:42:21;28.70;52.70
7700;DHT22;3892;47.794;19.126;2023-08-17T03:44:50;28.70;52.60
7700;DHT22;3892;47.794;19.126;2023-08-17T03:47:19;28.60;52.70
7700;DHT22;3892;47.794;19.126;2023-08-17T03:49:47;28.60;52.70
7700;DHT22;3892;47.794;19.126;2023-08-17T03:52:15;28.60;52.70
7700;DHT22;3892;47.794;19.126;2023-08-17T03:54:43;28.50;52.90
7700;DHT22;3892;47.794;19.126;2023-08-17T03:57:13;28.50;52.90
7700;DHT22;3892;47.794;19.126;2023-08-17T03:59:41;28.50;52.80
7700;DHT22;3892;47.794;19.126;2023-08-17T04:02:09;28.50;52.70
7700;DHT22;3892;47.794;19.126;2023-08-17T04:04:37;28.50;52.60
7700;DHT22;3892;47.794;19.126;2023-08-17T04:07:05;28.50;52.40
7700;DHT22;3892;47.794;19.126;2023-08-17T04:09:34;28.60;52.50
7700;DHT22;3892;47.794;19.126;2023-08-17T04:12:02;28.60;52.50
7700;DHT22;3892;47.794;19.126;2023-08-17T04:14:33;28.60;52.30
7700;DHT22;3892;47.794;19.126;2023-08-17T04:17:01;28.60;52.20
7700;DHT22;3892;47.794;19.126;2023-08-17T04:19:29;28.60;52.20
7700;DHT22;3892;47.794;19.126;2023-08-17T04:21:57;28.60;52.20
7700;DHT22;3892;47.794;19.126;2023-08-17T04:24:25;28.60;52.40
7700;DHT22;3892;47.794;19.126;2023-08-17T04:26:53;28.60;52.30
7700;DHT22;3892;47.794;19.126;2023-08-17T04:29:21;28.50;52.20
7700;DHT22;3892;47.794;19.126;2023-08-17T04:31:51;28.40;52.60
7700;DHT22;3892;47.794;19.126;2023-08-17T04:34:19;28.40;52.70
7700;DHT22;3892;47.794;19.126;2023-08-17T04:36:47;28.30;53.00
7700;DHT22;3892;47.794;19.126;2023-08-17T04:39:16;28.20;53.20
7700;DHT22;3892;47.794;19.126;2023-08-17T04:41:44;28.20;53.50
7700;DHT22;3892;47.794;19.126;2023-08-17T04:44:12;28.10;53.80
7700;DHT22;3892;47.794;19.126;2023-08-17T04:46:40;28.10;53.90
7700;DHT22;3892;47.794;19.126;2023-08-17T04:49:09;28.00;54.00
7700;DHT22;3892;47.794;19.126;2023-08-17T04:51:37;28.10;54.10
7700;DHT22;3892;47.794;19.126;2023-08-17T04:54:05;28.10;54.10
7700;DHT22;3892;47.794;19.126;2023-08-17T04:56:33;28.10;54.10
7700;DHT22;3892;47.794;19.126;2023-08-17T04:59:02;28.10;54.10
7700;DHT22;3892;47.794;19.126;2023-08-17T05:01:30;28.10;54.20
7700;DHT22;3892;47.794;19.126;2023-08-17T05:03:58;28.00;54.20
7700;DHT22;3892;47.794;19.126;2023-08-17T05:06:29;28.00;54.40
7700;DHT22;3892;47.794;19.126;2023-08-17T05:08:58;28.00;54.20
7700;DHT22;3892;47.794;19.126;2023-08-17T05:11:26;28.10;54.20
7700;DHT22;3892;47.794;19.126;2023-08-17T05:13:54;28.10;53.90
7700;DHT22;3892;47.794;19.126;2023-08-17T05:16:22;28.20;53.80
7700;DHT22;3892;47.794;19.126;2023-08-17T05:18:50;28.20;53.70
7700;DHT22;3892;47.794;19.126;2023-08-17T05:21:18;28.20;53.60
7700;DHT22;3892;47.794;19.126;2023-08-17T05:23:47;28.20;53.50
7700;DHT22;3892;47.794;19.126;2023-08-17T05:26:16;28.30;53.70
7700;DHT22;3892;47.794;19.126;2023-08-17T05:28:44;28.40;53.80
7700;DHT22;3892;47.794;19.126;2023-08-17T05:31:12;28.40;53.80
7700;DHT22;3892;47.794;19.126;2023-08-17T05:33:40;28.50;53.80
7700;DHT22;3892;47.794;19.126;2023-08-17T05:36:09;28.50;53.60
7700;DHT22;3892;47.794;19.126;2023-08-17T05:38:37;28.60;53.60
7700;DHT22;3892;47.794;19.126;2023-08-17T05:41:07;28.60;53.70
7700;DHT22;3892;47.794;19.126;2023-08-17T05:43:35;28.60;53.80
7700;DHT22;3892;47.794;19.126;2023-08-17T05:46:05;28.70;53.70
7700;DHT22;3892;47.794;19.126;2023-08-17T05:48:35;28.70;53.50
7700;DHT22;3892;47.794;19.126;2023-08-17T05:51:03;28.80;53.60
7700;DHT22;3892;47.794;19.126;2023-08-17T05:53:31;28.80;53.30
7700;DHT22;3892;47.794;19.126;2023-08-17T05:56:00;28.80;53.30
7700;DHT22;3892;47.794;19.126;2023-08-17T05:58:29;28.90;53.50
7700;DHT22;3892;47.794;19.126;2023-08-17T06:01:04;28.90;53.50
7700;DHT22;3892;47.794;19.126;2023-08-17T06:03:34;29.00;53.10
7700;DHT22;3892;47.794;19.126;2023-08-17T06:06:02;29.00;52.80
7700;DHT22;3892;47.794;19.126;2023-08-17T06:08:30;29.00;52.60
7700;DHT22;3892;47.794;19.126;2023-08-17T06:10:59;29.00;52.80
7700;DHT22;3892;47.794;19.126;2023-08-17T06:13:28;29.00;52.70
7700;DHT22;3892;47.794;19.126;2023-08-17T06:15:56;29.10;52.90
7700;DHT22;3892;47.794;19.126;2023-08-17T06:18:25;29.10;52.80
7700;DHT22;3892;47.794;19.126;2023-08-17T06:20:53;29.10;52.90
7700;DHT22;3892;47.794;19.126;2023-08-17T06:23:21;29.10;53.10
7700;DHT22;3892;47.794;19.126;2023-08-17T06:25:51;29.10;53.20
7700;DHT22;3892;47.794;19.126;2023-08-17T06:28:19;29.10;53.00
7700;DHT22;3892;47.794;19.126;2023-08-17T06:30:51;29.10;53.10
7700;DHT22;3892;47.794;19.126;2023-08-17T06:33:20;29.10;53.10
7700;DHT22;3892;47.794;19.126;2023-08-17T06:35:48;29.10;52.90
7700;DHT22;3892;47.794;19.126;2023-08-17T06:38:16;29.10;53.00
7700;DHT22;3892;47.794;19.126;2023-08-17T06:40:45;29.10;53.00
7700;DHT22;3892;47.794;19.126;2023-08-17T06:43:14;29.10;52.70
7700;DHT22;3892;47.794;19.126;2023-08-17T06:45:44;29.10;52.80
7700;DHT22;3892;47.794;19.126;2023-08-17T06:48:13;29.10;53.10
7700;DHT22;3892;47.794;19.126;2023-08-17T06:50:41;29.10;53.30
7700;DHT22;3892;47.794;19.126;2023-08-17T06:53:10;29.10;53.20
7700;DHT22;3892;47.794;19.126;2023-08-17T06:55:38;29.10;53.00
7700;DHT22;3892;47.794;19.126;2023-08-17T06:58:06;29.10;53.10
7700;DHT22;3892;47.794;19.126;2023-08-17T07:00:34;29.10;53.10
7700;DHT22;3892;47.794;19.126;2023-08-17T07:03:03;29.10;53.00
7700;DHT22;3892;47.794;19.126;2023-08-17T07:05:33;29.20;53.10
7700;DHT22;3892;47.794;19.126;2023-08-17T07:08:01;29.20;53.30
7700;DHT22;3892;47.794;19.126;2023-08-17T07:10:29;29.30;53.50
7700;DHT22;3892;47.794;19.126;2023-08-17T07:12:58;29.40;53.10
7700;DHT22;3892;47.794;19.126;2023-08-17T07:15:29;29.40;52.40
7700;DHT22;3892;47.794;19.126;2023-08-17T07:17:57;29.50;52.50
7700;DHT22;3892;47.794;19.126;2023-08-17T07:20:25;29.50;52.70
7700;DHT22;3892;47.794;19.126;2023-08-17T07:22:55;29.60;52.90
7700;DHT22;3892;47.794;19.126;2023-08-17T07:25:23;29.60;52.40
7700;DHT22;3892;47.794;19.126;2023-08-17T07:27:51;29.60;52.00
7700;DHT22;3892;47.794;19.126;2023-08-17T07:30:19;29.60;51.00
7700;DHT22;3892;47.794;19.126;2023-08-17T07:32:47;29.60;49.00
7700;DHT22;3892;47.794;19.126;2023-08-17T07:35:16;29.60;49.20
7700;DHT22;3892;47.794;19.126;2023-08-17T07:37:44;29.50;49.80
7700;DHT22;3892;47.794;19.126;2023-08-17T07:40:17;29.60;49.80
7700;DHT22;3892;47.794;19.126;2023-08-17T07:42:45;29.60;49.60
7700;DHT22;3892;47.794;19.126;2023-08-17T07:45:13;29.70;48.90
7700;DHT22;3892;47.794;19.126;2023-08-17T07:47:41;29.70;49.00
7700;DHT22;3892;47.794;19.126;2023-08-17T07:50:10;29.80;49.20
7700;DHT22;3892;47.794;19.126;2023-08-17T07:52:38;29.80;48.60
7700;DHT22;3892;47.794;19.126;2023-08-17T07:55:06;29.80;49.30
7700;DHT22;3892;47.794;19.126;2023-08-17T07:57:36;29.90;49.60
7700;DHT22;3892;47.794;19.126;2023-08-17T08:00:05;30.10;49.70
7700;DHT22;3892;47.794;19.126;2023-08-17T08:02:33;30.10;49.40
7700;DHT22;3892;47.794;19.126;2023-08-17T08:05:02;30.20;48.70
7700;DHT22;3892;47.794;19.126;2023-08-17T08:07:30;30.20;48.60
7700;DHT22;3892;47.794;19.126;2023-08-17T08:09:58;30.30;49.10
7700;DHT22;3892;47.794;19.126;2023-08-17T08:12:26;30.30;47.70
7700;DHT22;3892;47.794;19.126;2023-08-17T08:14:55;30.40;48.20
7700;DHT22;3892;47.794;19.126;2023-08-17T08:17:24;30.40;48.70
7700;DHT22;3892;47.794;19.126;2023-08-17T08:19:52;30.30;47.60
7700;DHT22;3892;47.794;19.126;2023-08-17T08:22:21;30.30;46.10
7700;DHT22;3892;47.794;19.126;2023-08-17T08:24:49;30.30;46.70
7700;DHT22;3892;47.794;19.126;2023-08-17T08:27:17;30.40;47.70
7700;DHT22;3892;47.794;19.126;2023-08-17T08:29:45;30.40;47.90
7700;DHT22;3892;47.794;19.126;2023-08-17T08:32:15;30.40;47.80
7700;DHT22;3892;47.794;19.126;2023-08-17T08:34:43;30.40;47.30
7700;DHT22;3892;47.794;19.126;2023-08-17T08:37:11;30.30;46.50
7700;DHT22;3892;47.794;19.126;2023-08-17T08:39:48;30.40;46.90
7700;DHT22;3892;47.794;19.126;2023-08-17T08:42:18;30.40;47.00
7700;DHT22;3892;47.794;19.126;2023-08-17T08:44:46;30.40;46.60
7700;DHT22;3892;47.794;19.126;2023-08-17T08:47:17;30.50;47.30
7700;DHT22;3892;47.794;19.126;2023-08-17T08:49:58;30.50;46.90
7700;DHT22;3892;47.794;19.126;2023-08-17T08:52:34;30.70;46.90
7700;DHT22;3892;47.794;19.126;2023-08-17T08:55:10;30.80;47.30
7700;DHT22;3892;47.794;19.126;2023-08-17T08:57:39;30.90;47.10
7700;DHT22;3892;47.794;19.126;2023-08-17T09:00:10;31.10;47.00
7700;DHT22;3892;47.794;19.126;2023-08-17T09:02:41;31.10;46.90
7700;DHT22;3892;47.794;19.126;2023-08-17T09:05:10;31.10;45.20
7700;DHT22;3892;47.794;19.126;2023-08-17T09:07:39;31.10;44.20
7700;DHT22;3892;47.794;19.126;2023-08-17T09:10:09;31.10;44.60
7700;DHT22;3892;47.794;19.126;2023-08-17T09:12:37;31.20;44.60
7700;DHT22;3892;47.794;19.126;2023-08-17T09:15:06;31.20;45.00
7700;DHT22;3892;47.794;19.126;2023-08-17T09:17:35;31.20;44.20
7700;DHT22;3892;47.794;19.126;2023-08-17T09:20:06;31.20;44.50
7700;DHT22;3892;47.794;19.126;2023-08-17T09:22:39;31.20;44.10
7700;DHT22;3892;47.794;19.126;2023-08-17T09:25:09;31.20;44.90
7700;DHT22;3892;47.794;19.126;2023-08-17T09:27:37;31.20;44.70
7700;DHT22;3892;47.794;19.126;2023-08-17T09:30:09;31.30;45.10
7700;DHT22;3892;47.794;19.126;2023-08-17T09:32:38;31.30;44.50
7700;DHT22;3892;47.794;19.126;2023-08-17T09:35:08;31.30;44.20
7700;DHT22;3892;47.794;19.126;2023-08-17T09:37:36;31.20;44.20
7700;DHT22;3892;47.794;19.126;2023-08-17T09:40:05;31.10;44.30
7700;DHT22;3892;47.794;19.126;2023-08-17T09:42:34;31.10;44.80
7700;DHT22;3892;47.794;19.126;2023-08-17T09:45:03;31.10;44.90
7700;DHT22;3892;47.794;19.126;2023-08-17T09:47:31;31.10;45.50
7700;DHT22;3892;47.794;19.126;2023-08-17T09:49:59;31.20;44.30
7700;DHT22;3892;47.794;19.126;2023-08-17T09:52:29;31.30;43.50
7700;DHT22;3892;47.794;19.126;2023-08-17T09:54:58;31.40;44.30
7700;DHT22;3892;47.794;19.126;2023-08-17T09:57:34;31.50;44.40
7700;DHT22;3892;47.794;19.126;2023-08-17T10:00:04;31.60;45.10
7700;DHT22;3892;47.794;19.126;2023-08-17T10:02:34;31.70;44.90
7700;DHT22;3892;47.794;19.126;2023-08-17T10:05:04;31.70;43.50
7700;DHT22;3892;47.794;19.126;2023-08-17T10:07:36;31.70;42.40
7700;DHT22;3892;47.794;19.126;2023-08-17T10:10:07;31.60;42.70
7700;DHT22;3892;47.794;19.126;2023-08-17T10:12:44;31.60;43.70
7700;DHT22;3892;47.794;19.126;2023-08-17T10:15:15;31.40;43.60
7700;DHT22;3892;47.794;19.126;2023-08-17T10:17:53;31.40;44.00
7700;DHT22;3892;47.794;19.126;2023-08-17T10:20:24;31.50;44.60
7700;DHT22;3892;47.794;19.126;2023-08-17T10:23:01;31.60;44.00
7700;DHT22;3892;47.794;19.126;2023-08-17T10:25:34;31.50;43.30
7700;DHT22;3892;47.794;19.126;2023-08-17T10:28:03;31.50;43.30
7700;DHT22;3892;47.794;19.126;2023-08-17T10:30:32;31.60;43.60
7700;DHT22;3892;47.794;19.126;2023-08-17T10:33:01;31.60;43.00
7700;DHT22;3892;47.794;19.126;2023-08-17T10:35:31;31.50;43.40
7700;DHT22;3892;47.794;19.126;2023-08-17T10:38:02;31.50;43.60
7700;DHT22;3892;47.794;19.126;2023-08-17T10:40:37;31.50;43.70
7700;DHT22;3892;47.794;19.126;2023-08-17T10:43:06;31.50;44.20
7700;DHT22;3892;47.794;19.126;2023-08-17T10:45:35;31.70;43.50
7700;DHT22;3892;47.794;19.126;2023-08-17T10:48:27;31.70;43.70
7700;DHT22;3892;47.794;19.126;2023-08-17T10:51:01;31.60;43.50
7700;DHT22;3892;47.794;19.126;2023-08-17T10:53:35;31.60;44.10
7700;DHT22;3892;47.794;19.126;2023-08-17T10:56:07;31.60;43.00
7700;DHT22;3892;47.794;19.126;2023-08-17T10:58:36;31.50;43.40
7700;DHT22;3892;47.794;19.126;2023-08-17T11:01:04;31.50;43.40
7700;DHT22;3892;47.794;19.126;2023-08-17T11:03:32;31.60;43.60
7700;DHT22;3892;47.794;19.126;2023-08-17T11:06:14;31.70;43.40
7700;DHT22;3892;47.794;19.126;2023-08-17T11:08:55;31.70;43.60
7700;DHT22;3892;47.794;19.126;2023-08-17T11:11:23;31.50;43.20
7700;DHT22;3892;47.794;19.126;2023-08-17T11:13:52;31.60;43.80
7700;DHT22;3892;47.794;19.126;2023-08-17T11:16:22;31.50;43.30
7700;DHT22;3892;47.794;19.126;2023-08-17T11:18:51;31.50;43.60
7700;DHT22;3892;47.794;19.126;2023-08-17T11:21:20;31.50;43.00
7700;DHT22;3892;47.794;19.126;2023-08-17T11:23:48;31.60;43.80
7700;DHT22;3892;47.794;19.126;2023-08-17T11:26:18;31.50;43.10
7700;DHT22;3892;47.794;19.126;2023-08-17T11:28:46;31.60;43.60
7700;DHT22;3892;47.794;19.126;2023-08-17T11:31:15;31.60;43.70
7700;DHT22;3892;47.794;19.126;2023-08-17T11:33:43;31.70;44.10
7700;DHT22;3892;47.794;19.126;2023-08-17T11:36:13;31.70;44.00
7700;DHT22;3892;47.794;19.126;2023-08-17T11:38:43;31.70;43.70
7700;DHT22;3892;47.794;19.126;2023-08-17T11:41:11;31.80;43.60
7700;DHT22;3892;47.794;19.126;2023-08-17T11:43:45;31.90;43.40
7700;DHT22;3892;47.794;19.126;2023-08-17T11:46:14;31.90;43.60
7700;DHT22;3892;47.794;19.126;2023-08-17T11:48:43;31.90;42.60
7700;DHT22;3892;47.794;19.126;2023-08-17T11:51:11;32.00;43.10
7700;DHT22;3892;47.794;19.126;2023-08-17T11:53:39;32.10;42.60
7700;DHT22;3892;47.794;19.126;2023-08-17T11:56:08;32.10;42.30
7700;DHT22;3892;47.794;19.126;2023-08-17T11:58:40;32.20;42.60
7700;DHT22;3892;47.794;19.126;2023-08-17T12:01:11;32.40;42.30
7700;DHT22;3892;47.794;19.126;2023-08-17T12:03:40;32.40;41.70
7700;DHT22;3892;47.794;19.126;2023-08-17T12:06:08;32.50;41.80
7700;DHT22;3892;47.794;19.126;2023-08-17T12:08:37;32.50;41.50
7700;DHT22;3892;47.794;19.126;2023-08-17T12:11:06;32.60;42.00
7700;DHT22;3892;47.794;19.126;2023-08-17T12:13:35;32.60;41.50
7700;DHT22;3892;47.794;19.126;2023-08-17T12:16:03;32.80;42.30
7700;DHT22;3892;47.794;19.126;2023-08-17T12:18:36;32.90;42.10
7700;DHT22;3892;47.794;19.126;2023-08-17T12:21:04;32.90;42.00
7700;DHT22;3892;47.794;19.126;2023-08-17T12:23:33;32.90;42.00
7700;DHT22;3892;47.794;19.126;2023-08-17T12:26:01;32.90;44.30
7700;DHT22;3892;47.794;19.126;2023-08-17T12:28:29;32.60;47.00
7700;DHT22;3892;47.794;19.126;2023-08-17T12:30:58;32.30;47.50
7700;DHT22;3892;47.794;19.126;2023-08-17T12:33:27;32.20;50.40
7700;DHT22;3892;47.794;19.126;2023-08-17T12:35:57;32.10;52.20
7700;DHT22;3892;47.794;19.126;2023-08-17T12:38:25;32.20;52.60
7700;DHT22;3892;47.794;19.126;2023-08-17T12:40:53;32.10;53.10
7700;DHT22;3892;47.794;19.126;2023-08-17T12:43:22;32.10;53.80
7700;DHT22;3892;47.794;19.126;2023-08-17T12:45:50;32.10;53.50
7700;DHT22;3892;47.794;19.126;2023-08-17T12:48:18;32.10;54.50
7700;DHT22;3892;47.794;19.126;2023-08-17T12:50:46;32.10;54.90
7700;DHT22;3892;47.794;19.126;2023-08-17T12:53:15;32.10;55.20
7700;DHT22;3892;47.794;19.126;2023-08-17T12:55:43;32.10;55.00
7700;DHT22;3892;47.794;19.126;2023-08-17T12:58:12;32.10;54.70
7700;DHT22;3892;47.794;19.126;2023-08-17T13:00:40;32.10;53.80
7700;DHT22;3892;47.794;19.126;2023-08-17T13:03:08;32.10;55.40
7700;DHT22;3892;47.794;19.126;2023-08-17T13:05:37;32.20;55.80
7700;DHT22;3892;47.794;19.126;2023-08-17T13:08:06;32.20;56.80
7700;DHT22;3892;47.794;19.126;2023-08-17T13:10:36;32.30;55.90
7700;DHT22;3892;47.794;19.126;2023-08-17T13:13:04;32.20;55.10
7700;DHT22;3892;47.794;19.126;2023-08-17T13:15:33;32.20;54.20
7700;DHT22;3892;47.794;19.126;2023-08-17T13:18:01;32.20;54.20
7700;DHT22;3892;47.794;19.126;2023-08-17T13:20:29;32.20;54.30
7700;DHT22;3892;47.794;19.126;2023-08-17T13:22:58;32.20;53.60
7700;DHT22;3892;47.794;19.126;2023-08-17T13:25:26;32.10;53.50
7700;DHT22;3892;47.794;19.126;2023-08-17T13:27:55;32.10;53.80
7700;DHT22;3892;47.794;19.126;2023-08-17T13:30:23;32.10;54.10
7700;DHT22;3892;47.794;19.126;2023-08-17T13:32:52;32.10;54.80
7700;DHT22;3892;47.794;19.126;2023-08-17T13:35:20;32.10;55.20
7700;DHT22;3892;47.794;19.126;2023-08-17T13:37:51;32.20;56.40
7700;DHT22;3892;47.794;19.126;2023-08-17T13:40:21;32.20;55.10
7700;DHT22;3892;47.794;19.126;2023-08-17T13:42:49;32.20;53.50
7700;DHT22;3892;47.794;19.126;2023-08-17T13:45:19;32.20;53.00
7700;DHT22;3892;47.794;19.126;2023-08-17T13:47:47;32.30;53.50
7700;DHT22;3892;47.794;19.126;2023-08-17T13:50:16;32.30;53.80
7700;DHT22;3892;47.794;19.126;2023-08-17T13:52:45;32.30;52.90
7700;DHT22;3892;47.794;19.126;2023-08-17T13:55:13;32.20;53.50
7700;DHT22;3892;47.794;19.126;2023-08-17T13:57:41;32.10;51.20
7700;DHT22;3892;47.794;19.126;2023-08-17T14:00:11;31.90;50.80
7700;DHT22;3892;47.794;19.126;2023-08-17T14:02:40;31.70;51.30
7700;DHT22;3892;47.794;19.126;2023-08-17T14:05:08;31.70;52.40
7700;DHT22;3892;47.794;19.126;2023-08-17T14:07:37;31.60;52.30
7700;DHT22;3892;47.794;19.126;2023-08-17T14:10:05;31.60;52.10
7700;DHT22;3892;47.794;19.126;2023-08-17T14:12:36;31.60;51.60
7700;DHT22;3892;47.794;19.126;2023-08-17T14:15:05;31.60;51.30
7700;DHT22;3892;47.794;19.126;2023-08-17T14:17:33;31.70;52.10
7700;DHT22;3892;47.794;19.126;2023-08-17T14:20:04;31.70;50.10
7700;DHT22;3892;47.794;19.126;2023-08-17T14:22:32;31.60;49.10
7700;DHT22;3892;47.794;19.126;2023-08-17T14:25:00;31.50;49.50
7700;DHT22;3892;47.794;19.126;2023-08-17T14:27:29;31.40;49.20
7700;DHT22;3892;47.794;19.126;2023-08-17T14:29:57;31.50;50.00
7700;DHT22;3892;47.794;19.126;2023-08-17T14:32:28;31.50;49.10
7700;DHT22;3892;47.794;19.126;2023-08-17T14:34:58;31.60;49.10
7700;DHT22;3892;47.794;19.126;2023-08-17T14:37:28;31.70;47.40
7700;DHT22;3892;47.794;19.126;2023-08-17T14:39:56;31.80;48.00
7700;DHT22;3892;47.794;19.126;2023-08-17T14:42:24;31.80;47.00
7700;DHT22;3892;47.794;19.126;2023-08-17T14:44:53;31.90;46.20
7700;DHT22;3892;47.794;19.126;2023-08-17T14:47:21;32.00;45.80
7700;DHT22;3892;47.794;19.126;2023-08-17T14:49:49;31.90;46.30
7700;DHT22;3892;47.794;19.126;2023-08-17T14:52:20;31.70;45.90
7700;DHT22;3892;47.794;19.126;2023-08-17T14:54:49;31.60;46.10
7700;DHT22;3892;47.794;19.126;2023-08-17T14:57:17;31.60;46.30
7700;DHT22;3892;47.794;19.126;2023-08-17T14:59:48;31.60;47.10
7700;DHT22;3892;47.794;19.126;2023-08-17T15:02:16;31.40;46.40
7700;DHT22;3892;47.794;19.126;2023-08-17T15:04:47;31.40;47.30
7700;DHT22;3892;47.794;19.126;2023-08-17T15:07:15;31.20;47.10
7700;DHT22;3892;47.794;19.126;2023-08-17T15:09:44;31.20;47.30
7700;DHT22;3892;47.794;19.126;2023-08-17T15:12:14;31.20;47.50
7700;DHT22;3892;47.794;19.126;2023-08-17T15:14:42;31.10;47.70
7700;DHT22;3892;47.794;19.126;2023-08-17T15:17:10;31.10;47.60
7700;DHT22;3892;47.794;19.126;2023-08-17T15:19:39;31.10;47.70
7700;DHT22;3892;47.794;19.126;2023-08-17T15:22:07;31.00;47.70
7700;DHT22;3892;47.794;19.126;2023-08-17T15:24:40;31.00;47.80
7700;DHT22;3892;47.794;19.126;2023-08-17T15:27:10;31.00;47.90
7700;DHT22;3892;47.794;19.126;2023-08-17T15:29:39;30.90;47.60
7700;DHT22;3892;47.794;19.126;2023-08-17T15:32:08;31.00;47.90
7700;DHT22;3892;47.794;19.126;2023-08-17T15:34:36;31.10;47.70
7700;DHT22;3892;47.794;19.126;2023-08-17T15:37:05;31.10;47.30
7700;DHT22;3892;47.794;19.126;2023-08-17T15:39:33;31.20;47.20
7700;DHT22;3892;47.794;19.126;2023-08-17T15:42:01;31.20;46.90
7700;DHT22;3892;47.794;19.126;2023-08-17T15:44:30;31.20;46.90
7700;DHT22;3892;47.794;19.126;2023-08-17T15:47:00;31.20;47.10
7700;DHT22;3892;47.794;19.126;2023-08-17T15:49:28;31.20;47.30
7700;DHT22;3892;47.794;19.126;2023-08-17T15:51:56;31.10;47.20
7700;DHT22;3892;47.794;19.126;2023-08-17T15:54:24;31.10;47.70
7700;DHT22;3892;47.794;19.126;2023-08-17T15:56:59;31.10;47.40